Time;durP1;ratioP1;P1;durP2;ratioP2;P2;SDS_P1;SDS_P2;PMS_P1;PMS_P2;Temp;Humidity;BMP_temperature;BMP_pressure;BME280_temperature;BME280_humidity;BME280_pressure;Samples;Min_cycle;Max_cycle;Signal;HPM_P1;HPM_P2
2020/12/14 00:00:00;;;;;;;;;26.75;21.50;;;;;12.82;56.19;98387.28;4845382;28;103811;-74
2020/12/14 00:02:27;;;;;;;;;20.75;19.50;;;;;12.78;55.40;98386.88;4847188;28;102421;-74
2020/12/14 00:04:54;;;;;;;;;26.00;19.00;;;;;12.77;55.09;98390.66;4851513;28;102337;-74
2020/12/14 00:07:24;;;;;;;;;25.25;19.50;;;;;12.77;55.46;98385.22;4840968;28;104762;-74
2020/12/14 00:09:51;;;;;;;;;21.25;18.25;;;;;12.78;55.21;98402.34;4845322;28;103805;-74
2020/12/14 00:12:18;;;;;;;;;22.50;19.50;;;;;12.76;55.61;98405.25;4852223;28;102186;-74
2020/12/14 00:14:44;;;;;;;;;22.00;19.00;;;;;12.74;56.01;98407.34;4839480;28;104326;-74
2020/12/14 00:17:11;;;;;;;;;21.25;18.00;;;;;12.73;55.75;98408.41;4853450;28;105382;-74
2020/12/14 00:19:38;;;;;;;;;19.25;17.75;;;;;12.72;55.68;98411.34;4848329;28;107998;-74
2020/12/14 00:22:05;;;;;;;;;22.50;18.25;;;;;12.72;55.96;98411.34;4852605;28;103871;-74
2020/12/14 00:24:31;;;;;;;;;23.75;19.00;;;;;12.71;55.33;98415.09;4846480;28;102228;-74
2020/12/14 00:26:58;;;;;;;;;26.75;22.50;;;;;12.70;55.00;98410.75;4853962;28;102090;-74
2020/12/14 00:29:25;;;;;;;;;26.75;18.00;;;;;12.69;55.40;98418.03;4858716;28;103541;-74
2020/12/14 00:31:52;;;;;;;;;19.00;17.00;;;;;12.70;55.14;98410.75;4849187;28;105445;-74
2020/12/14 00:34:20;;;;;;;;;20.00;17.75;;;;;12.67;55.03;98419.28;4852383;28;102133;-74
2020/12/14 00:37:01;;;;;;;;;19.75;17.50;;;;;12.66;55.41;98417.63;4858441;28;102181;-74
2020/12/14 00:39:28;;;;;;;;;21.75;16.75;;;;;12.63;55.90;98420.78;4850483;28;103653;-74
2020/12/14 00:41:54;;;;;;;;;16.00;13.50;;;;;12.64;55.87;98419.75;4855570;28;103241;-74
2020/12/14 00:44:21;;;;;;;;;19.25;18.25;;;;;12.62;55.84;98413.69;4853741;28;101912;-74
2020/12/14 00:46:47;;;;;;;;;27.50;18.75;;;;;12.61;55.82;98421.00;4853013;28;102293;-74
2020/12/14 00:49:14;;;;;;;;;21.00;18.00;;;;;12.59;55.11;98419.56;4854404;28;104515;-74
2020/12/14 00:51:41;;;;;;;;;28.00;18.75;;;;;12.59;55.52;98427.69;4856838;28;102080;-74
2020/12/14 00:54:08;;;;;;;;;18.50;17.25;;;;;12.58;55.88;98432.28;4854677;28;102259;-74
2020/12/14 00:56:35;;;;;;;;;24.75;19.75;;;;;12.57;55.73;98429.78;4857543;28;103777;-74
2020/12/14 00:59:02;;;;;;;;;17.50;16.25;;;;;12.57;54.91;98424.38;4844791;28;103577;-74
2020/12/14 01:01:28;;;;;;;;;22.50;17.25;;;;;12.55;55.20;98429.19;4856710;28;103416;-74
2020/12/14 01:03:55;;;;;;;;;24.00;17.75;;;;;12.56;55.06;98422.72;4851091;28;103324;-74
2020/12/14 01:06:22;;;;;;;;;19.00;15.25;;;;;12.55;55.79;98434.63;4847062;28;103315;-74
2020/12/14 01:08:50;;;;;;;;;18.25;15.75;;;;;12.54;55.03;98441.91;4847017;28;103387;-74
2020/12/14 01:11:16;;;;;;;;;19.00;17.00;;;;;12.53;55.38;98438.38;4841152;28;102663;-74
2020/12/14 01:13:45;;;;;;;;;14.75;14.50;;;;;12.52;55.39;98436.69;4825742;28;103613;-74
2020/12/14 01:16:12;;;;;;;;;18.00;16.25;;;;;12.50;55.54;98432.56;4841112;28;103604;-74
2020/12/14 01:18:40;;;;;;;;;17.75;15.75;;;;;12.49;55.54;98436.31;4852535;28;103483;-74
2020/12/14 01:21:06;;;;;;;;;16.00;14.50;;;;;12.48;55.06;98437.34;4848229;28;102300;-74
2020/12/14 01:23:33;;;;;;;;;18.25;15.75;;;;;12.47;54.88;98439.22;4846461;28;103578;-74
2020/12/14 01:26:00;;;;;;;;;15.50;15.00;;;;;12.49;55.53;98448.00;4853281;28;103182;-74
2020/12/14 01:28:26;;;;;;;;;20.75;16.00;;;;;12.45;55.11;98440.50;4852455;28;103590;-74
2020/12/14 01:30:53;;;;;;;;;18.50;15.25;;;;;12.46;54.90;98443.00;4848167;28;102062;-74
2020/12/14 01:33:21;;;;;;;;;20.75;16.75;;;;;12.47;54.73;98447.38;4855319;28;102224;-74
2020/12/14 01:35:48;;;;;;;;;16.25;14.50;;;;;12.46;55.74;98461.16;4854021;28;102152;-75
2020/12/14 01:38:14;;;;;;;;;16.75;16.00;;;;;12.45;55.54;98452.19;4851387;28;103764;-75
2020/12/14 01:40:41;;;;;;;;;17.75;16.25;;;;;12.44;55.09;98450.53;4853037;28;102050;-75
2020/12/14 01:43:08;;;;;;;;;18.00;15.25;;;;;12.43;54.70;98461.56;4848862;28;102084;-75
2020/12/14 01:45:35;;;;;;;;;15.25;15.00;;;;;12.43;54.87;98454.28;4847729;28;103694;-75
2020/12/14 01:48:03;;;;;;;;;16.50;16.00;;;;;12.42;55.36;98466.19;4852842;28;103423;-75
2020/12/14 01:50:30;;;;;;;;;16.75;16.25;;;;;12.41;54.90;98466.41;4851912;28;102596;-75
2020/12/14 01:52:58;;;;;;;;;7.25;5.00;;;;;12.40;55.03;98465.56;4847446;28;103287;-75
2020/12/14 01:55:24;;;;;;;;;15.25;14.00;;;;;12.40;55.37;98462.00;4856954;28;103526;-75
2020/12/14 01:57:51;;;;;;;;;16.50;16.00;;;;;12.41;55.37;98466.41;4847097;28;103486;-75
2020/12/14 02:00:18;;;;;;;;;13.75;12.75;;;;;12.40;54.77;98468.28;4837615;28;103276;-75
2020/12/14 02:02:44;;;;;;;;;17.25;14.50;;;;;12.39;55.31;98469.31;4849279;28;103782;-75
2020/12/14 02:05:11;;;;;;;;;17.00;15.75;;;;;12.37;55.59;98466.00;4850000;28;103511;-75
2020/12/14 02:07:38;;;;;;;;;19.25;16.00;;;;;12.37;55.44;98465.16;4844597;28;108214;-74
2020/12/14 02:10:05;;;;;;;;;17.00;15.50;;;;;12.37;55.64;98459.75;4840313;28;105309;-74
2020/12/14 02:12:34;;;;;;;;;17.25;15.75;;;;;12.34;54.74;98447.44;4841040;28;102145;-74
2020/12/14 02:15:02;;;;;;;;;14.50;13.00;;;;;12.35;55.47;98440.13;4832565;28;102427;-74
2020/12/14 02:17:31;;;;;;;;;16.00;15.00;;;;;12.34;54.92;98435.75;4823164;28;103704;-74
2020/12/14 02:20:00;;;;;;;;;16.50;15.75;;;;;12.32;55.16;98449.53;4841283;28;102742;-74
2020/12/14 02:22:29;;;;;;;;;16.25;12.50;;;;;12.31;54.80;98464.13;4829211;28;103951;-74
2020/12/14 02:25:04;;;;;;;;;19.00;15.75;;;;;12.30;54.97;98459.75;4840527;28;102458;-74
2020/12/14 02:27:34;;;;;;;;;16.25;14.25;;;;;12.30;54.88;98448.06;4832126;28;104363;-74
2020/12/14 02:30:05;;;;;;;;;15.00;13.00;;;;;12.28;55.42;98456.44;4840892;28;102200;-74
2020/12/14 02:32:35;;;;;;;;;15.75;13.00;;;;;12.28;55.46;98458.31;4853840;28;102076;-74
2020/12/14 02:35:03;;;;;;;;;16.50;14.75;;;;;12.28;54.82;98453.75;4859083;28;103080;-74
2020/12/14 02:37:32;;;;;;;;;15.25;14.50;;;;;12.27;55.13;98457.50;4855637;28;103171;-74
2020/12/14 02:40:00;;;;;;;;;15.75;12.75;;;;;12.28;54.77;98471.88;4847782;28;103403;-74
2020/12/14 02:42:28;;;;;;;;;15.25;14.75;;;;;12.27;54.96;98473.75;4849894;28;103741;-74
2020/12/14 02:44:56;;;;;;;;;18.00;14.00;;;;;12.29;54.76;98476.25;4855206;28;102019;-74
2020/12/14 02:47:22;;;;;;;;;15.00;14.00;;;;;12.27;55.13;98473.75;4848570;28;103735;-74
2020/12/14 02:49:49;;;;;;;;;16.00;12.00;;;;;12.24;55.21;98471.47;4852926;28;102055;-74
2020/12/14 02:52:16;;;;;;;;;16.00;14.00;;;;;12.25;55.36;98477.72;4851721;28;102346;-74
2020/12/14 02:54:43;;;;;;;;;20.00;14.25;;;;;12.24;55.08;98474.19;4851151;28;108679;-74
2020/12/14 02:57:10;;;;;;;;;14.25;12.50;;;;;12.23;54.82;98483.38;4851713;28;108041;-74
2020/12/14 02:59:37;;;;;;;;;14.00;13.50;;;;;12.22;54.93;98478.97;4846502;28;102243;-74
2020/12/14 03:02:03;;;;;;;;;16.75;14.00;;;;;12.22;54.89;98473.56;4853765;28;103395;-74
2020/12/14 03:04:30;;;;;;;;;17.50;14.75;;;;;12.21;55.30;98477.31;4854225;28;102250;-73
2020/12/14 03:06:57;;;;;;;;;15.00;13.00;;;;;12.21;55.20;98481.91;4851569;28;103387;-74
2020/12/14 03:09:24;;;;;;;;;15.00;13.75;;;;;12.20;55.41;98481.09;4856500;28;103630;-74
2020/12/14 03:11:51;;;;;;;;;15.75;13.00;;;;;12.18;55.07;98480.47;4853516;28;101959;-74
2020/12/14 03:14:18;;;;;;;;;14.50;11.75;;;;;12.18;55.32;98476.91;4852757;28;102321;-74
2020/12/14 03:16:49;;;;;;;;;13.25;10.50;;;;;12.17;54.96;98473.38;4856334;28;104748;-74
2020/12/14 03:19:17;;;;;;;;;16.50;15.00;;;;;12.17;54.62;98476.09;4848084;28;101853;-74
2020/12/14 03:21:44;;;;;;;;;17.50;13.25;;;;;12.17;55.01;98480.66;4854065;28;101761;-74
2020/12/14 03:24:10;;;;;;;;;15.00;13.75;;;;;12.16;55.35;98487.97;4861154;28;102168;-74
2020/12/14 03:26:37;;;;;;;;;13.50;13.50;;;;;12.15;54.87;98490.91;4850304;28;103383;-74
2020/12/14 03:29:04;;;;;;;;;14.50;12.25;;;;;12.15;54.75;98489.03;4850903;28;103646;-74
2020/12/14 03:31:31;;;;;;;;;14.25;13.00;;;;;12.15;54.79;98483.63;4852517;28;102148;-74
2020/12/14 03:33:58;;;;;;;;;14.25;13.00;;;;;12.14;54.98;98484.66;4858238;28;102129;-74
2020/12/14 03:36:25;;;;;;;;;13.00;13.00;;;;;12.13;55.15;98479.44;4851840;28;103546;-74
2020/12/14 03:38:53;;;;;;;;;12.25;10.75;;;;;12.15;54.67;98474.66;4850211;28;101679;-74
2020/12/14 03:41:20;;;;;;;;;16.50;13.25;;;;;12.11;54.76;98474.25;4851514;28;102067;-74
2020/12/14 03:43:48;;;;;;;;;13.75;12.25;;;;;12.13;54.59;98482.16;4851664;28;103414;-74
2020/12/14 03:46:31;;;;;;;;;17.25;11.75;;;;;12.13;54.76;98480.28;4852104;28;103406;-74
2020/12/14 03:48:59;;;;;;;;;15.50;14.00;;;;;12.13;54.96;98484.84;4847871;28;103774;-74
2020/12/14 03:51:25;;;;;;;;;15.25;14.00;;;;;12.12;55.07;98485.88;4850447;28;102070;-74
2020/12/14 03:53:52;;;;;;;;;14.00;12.25;;;;;12.11;54.57;98487.81;4838437;28;103370;-74
2020/12/14 03:56:22;;;;;;;;;16.75;13.50;;;;;12.11;54.40;98493.22;4846127;28;103856;-74
2020/12/14 03:58:50;;;;;;;;;15.75;13.75;;;;;12.10;54.40;98496.97;4833202;28;103831;-74
2020/12/14 04:01:20;;;;;;;;;16.50;14.25;;;;;12.10;55.30;98501.56;4835669;28;102407;-74
2020/12/14 04:03:48;;;;;;;;;14.25;13.00;;;;;12.07;55.00;98503.63;4854240;28;102618;-74
2020/12/14 04:06:17;;;;;;;;;11.75;10.50;;;;;12.07;54.79;98510.94;4848347;28;103465;-74
2020/12/14 04:08:44;;;;;;;;;16.00;13.50;;;;;12.06;54.80;98506.56;4839779;28;103396;-74
2020/12/14 04:11:11;;;;;;;;;12.00;11.00;;;;;12.06;54.79;98506.56;4841015;28;102470;-74
2020/12/14 04:13:37;;;;;;;;;13.25;13.25;;;;;12.05;54.75;98510.31;4848710;28;102138;-74
2020/12/14 04:16:04;;;;;;;;;12.75;12.50;;;;;12.06;55.05;98526.38;4842882;28;103364;-74
2020/12/14 04:18:31;;;;;;;;;16.50;13.00;;;;;12.05;54.75;98518.44;4853044;28;102132;-74
2020/12/14 04:20:57;;;;;;;;;18.00;14.00;;;;;12.05;54.58;98526.59;4852087;28;102831;-74
2020/12/14 04:23:24;;;;;;;;;13.25;12.25;;;;;12.02;54.92;98519.69;4851561;28;102249;-74
2020/12/14 04:25:51;;;;;;;;;16.00;14.00;;;;;12.03;55.09;98528.66;4851609;28;103397;-74
2020/12/14 04:28:17;;;;;;;;;18.50;14.00;;;;;12.02;54.64;98530.53;4854737;28;103309;-74
2020/12/14 04:30:44;;;;;;;;;13.75;10.50;;;;;12.03;55.14;98542.22;4851463;28;102181;-74
2020/12/14 04:33:11;;;;;;;;;14.50;14.00;;;;;12.01;54.74;98541.59;4854748;28;102167;-74
2020/12/14 04:35:37;;;;;;;;;16.50;14.50;;;;;12.02;54.75;98543.28;4848886;28;103604;-74
2020/12/14 04:38:04;;;;;;;;;13.75;13.50;;;;;12.02;54.64;98546.78;4856380;28;105122;-74
2020/12/14 04:40:31;;;;;;;;;14.50;12.75;;;;;12.00;54.97;98546.19;4833426;28;102867;-74
2020/12/14 04:42:58;;;;;;;;;14.50;12.00;;;;;12.02;54.38;98548.69;4838963;28;104034;-74
2020/12/14 04:45:25;;;;;;;;;13.00;12.50;;;;;12.01;54.36;98547.03;4839417;28;104239;-74
2020/12/14 04:47:56;;;;;;;;;13.25;12.25;;;;;11.98;54.79;98536.59;4833898;28;102166;-74
2020/12/14 04:50:23;;;;;;;;;18.50;14.00;;;;;12.00;54.51;98548.91;4837888;28;102262;-74
2020/12/14 04:52:51;;;;;;;;;13.50;12.50;;;;;11.99;54.44;98549.09;4837184;28;103728;-74
2020/12/14 04:55:21;;;;;;;;;14.25;12.00;;;;;12.00;54.36;98553.47;4841396;28;104059;-74
2020/12/14 04:57:48;;;;;;;;;15.25;12.25;;;;;11.98;54.40;98552.84;4835818;28;102634;-74
2020/12/14 05:00:15;;;;;;;;;14.50;12.75;;;;;11.98;54.47;98550.97;4837083;28;103434;-74
2020/12/14 05:02:42;;;;;;;;;9.75;9.50;;;;;11.95;54.32;98554.13;4840833;28;103788;-74
2020/12/14 05:05:12;;;;;;;;;14.25;13.25;;;;;11.96;54.65;98566.63;4834588;28;103880;-74
2020/12/14 05:07:43;;;;;;;;;15.75;12.00;;;;;11.95;54.52;98562.25;4830253;28;102932;-74
2020/12/14 05:10:10;;;;;;;;;12.00;11.00;;;;;11.96;54.19;98566.63;4839888;28;102811;-74
2020/12/14 05:12:41;;;;;;;;;12.75;12.25;;;;;11.96;54.61;98565.78;4839039;28;102621;-74
2020/12/14 05:15:26;;;;;;;;;11.50;10.25;;;;;11.94;54.29;98562.44;4834870;28;104058;-74
2020/12/14 05:18:07;;;;;;;;;16.25;14.50;;;;;11.93;54.73;98572.44;4782066;28;104397;-74
2020/12/14 05:20:34;;;;;;;;;11.25;10.75;;;;;11.91;54.96;98579.97;4846262;28;104175;-74
2020/12/14 05:23:03;;;;;;;;;15.50;13.50;;;;;11.92;54.41;98575.38;4839916;28;102210;-74
2020/12/14 05:25:30;;;;;;;;;15.00;14.00;;;;;11.92;54.52;98597.06;4835061;28;104301;-74
2020/12/14 05:28:12;;;;;;;;;14.25;12.00;;;;;11.90;54.73;98599.97;4845165;28;102321;-74
2020/12/14 05:30:57;;;;;;;;;14.25;13.00;;;;;11.89;54.17;98602.88;4835296;28;103491;-74
2020/12/14 05:33:25;;;;;;;;;13.50;11.00;;;;;11.91;54.63;98598.94;4777817;28;104065;-74
2020/12/14 05:35:52;;;;;;;;;13.50;12.50;;;;;11.91;54.95;98608.94;4835814;28;104226;-74
2020/12/14 05:38:22;;;;;;;;;12.50;12.00;;;;;11.91;54.70;98611.66;4838610;28;103686;-74
2020/12/14 05:40:51;;;;;;;;;14.00;12.50;;;;;11.91;54.49;98603.50;4836934;28;105824;-74
2020/12/14 05:43:19;;;;;;;;;12.75;11.50;;;;;11.90;55.10;98605.38;4845242;28;102248;-74
2020/12/14 05:45:46;;;;;;;;;14.75;14.75;;;;;11.90;54.65;98613.50;4844102;28;104044;-74
2020/12/14 05:48:35;;;;;;;;;13.25;12.75;;;;;11.90;54.43;98613.50;4845166;28;103563;-74
2020/12/14 05:51:03;;;;;;;;;15.00;13.00;;;;;11.89;54.71;98619.13;4780692;28;102242;-73
2020/12/14 05:53:37;;;;;;;;;13.25;11.50;;;;;11.88;54.57;98622.91;4843382;28;102544;-74
2020/12/14 05:56:05;;;;;;;;;15.25;13.75;;;;;11.88;54.34;98622.91;4839101;28;104093;-74
2020/12/14 05:58:32;;;;;;;;;16.75;12.25;;;;;11.88;54.56;98622.91;4840202;28;102286;-74
2020/12/14 06:01:00;;;;;;;;;14.50;13.75;;;;;11.87;54.73;98627.50;4831644;28;102688;-74
2020/12/14 06:03:27;;;;;;;;;13.00;13.00;;;;;11.88;54.60;98622.91;4835413;28;102468;-74
2020/12/14 06:06:04;;;;;;;;;13.75;12.25;;;;;11.86;54.62;98619.56;4833352;28;103934;-74
2020/12/14 06:08:46;;;;;;;;;14.50;12.50;;;;;11.85;54.49;98607.88;4827470;28;102608;-74
2020/12/14 06:11:20;;;;;;;;;14.50;13.00;;;;;11.85;54.61;98607.06;4836658;28;102688;-74
2020/12/14 06:13:54;;;;;;;;;12.50;11.50;;;;;11.84;54.46;98616.25;4835409;28;102636;-74
2020/12/14 06:16:28;;;;;;;;;12.25;11.00;;;;;11.85;54.52;98612.47;4836165;28;108202;-74
2020/12/14 06:18:56;;;;;;;;;13.25;12.00;;;;;11.84;54.74;98603.50;4837477;28;103739;-74
2020/12/14 06:21:38;;;;;;;;;14.00;12.25;;;;;11.84;54.35;98610.81;4834089;28;102393;-74
2020/12/14 06:24:05;;;;;;;;;15.75;13.50;;;;;11.84;54.27;98610.81;4821665;28;102160;-73
2020/12/14 06:26:35;;;;;;;;;12.75;11.50;;;;;11.82;54.10;98602.91;4839739;28;104202;-73
2020/12/14 06:29:02;;;;;;;;;11.25;10.75;;;;;11.81;54.46;98603.94;4837524;28;102134;-74
2020/12/14 06:31:39;;;;;;;;;16.00;12.75;;;;;11.82;54.25;98610.19;4835653;28;102386;-73
2020/12/14 06:34:33;;;;;;;;;14.75;11.75;;;;;11.82;54.43;98608.31;4836015;28;105362;-74
2020/12/14 06:37:00;;;;;;;;;13.75;12.50;;;;;11.81;54.13;98617.47;4780489;28;108781;-74
2020/12/14 06:39:31;;;;;;;;;15.00;12.00;;;;;11.82;53.96;98611.03;4846252;28;102299;-74
2020/12/14 06:42:17;;;;;;;;;15.75;14.00;;;;;11.81;54.12;98617.47;4844477;28;103597;-74
2020/12/14 06:44:44;;;;;;;;;13.00;11.25;;;;;11.80;54.43;98607.69;4832045;28;102537;-74
2020/12/14 06:47:17;;;;;;;;;13.50;12.00;;;;;11.80;54.52;98621.22;4844311;28;108919;-73
2020/12/14 06:49:46;;;;;;;;;14.00;11.00;;;;;11.78;54.26;98611.66;4837441;28;103394;-73
2020/12/14 06:52:33;;;;;;;;;12.25;11.00;;;;;11.79;54.40;98618.75;4838437;28;103322;-74
2020/12/14 06:55:00;;;;;;;;;16.00;13.00;;;;;11.78;54.08;98619.78;4787023;28;102337;-74
2020/12/14 06:57:53;;;;;;;;;11.50;10.75;;;;;11.78;54.27;98625.19;4843865;28;104034;-73
2020/12/14 07:00:19;;;;;;;;;13.00;11.00;;;;;11.78;54.17;98627.91;4834887;28;104488;-74
2020/12/14 07:02:46;;;;;;;;;15.50;12.00;;;;;11.77;54.42;98632.47;4831551;28;102595;-74
2020/12/14 07:05:31;;;;;;;;;15.00;13.25;;;;;11.77;54.05;98645.19;4839355;28;102509;-74
2020/12/14 07:07:58;;;;;;;;;12.25;10.50;;;;;11.77;54.60;98648.75;4770624;28;109262;-74
2020/12/14 07:10:28;;;;;;;;;12.50;11.25;;;;;11.77;54.80;98653.31;4836559;28;102169;-74
2020/12/14 07:12:57;;;;;;;;;13.25;11.75;;;;;11.76;54.59;98660.59;4838692;28;103463;-74
2020/12/14 07:15:39;;;;;;;;;14.25;12.00;;;;;11.76;54.69;98660.59;4842490;28;102296;-74
2020/12/14 07:18:25;;;;;;;;;15.50;11.75;;;;;11.77;54.12;98664.16;4845887;28;104175;-74
2020/12/14 07:20:51;;;;;;;;;11.25;10.00;;;;;11.77;54.69;98656.03;4766635;28;102543;-74
2020/12/14 07:23:18;;;;;;;;;13.00;11.00;;;;;11.75;54.36;98658.13;4836769;28;102107;-74
2020/12/14 07:25:45;;;;;;;;;11.00;10.00;;;;;11.74;54.44;98646.44;4842757;28;102587;-74
2020/12/14 07:28:12;;;;;;;;;13.50;12.00;;;;;11.73;54.58;98661.03;4843339;28;108716;-74
2020/12/14 07:30:39;;;;;;;;;12.75;11.75;;;;;11.73;54.27;98657.47;4840427;28;102535;-74
2020/12/14 07:33:05;;;;;;;;;14.75;11.50;;;;;11.72;54.60;98666.63;4841018;28;102198;-74
2020/12/14 07:35:32;;;;;;;;;12.00;11.00;;;;;11.73;54.24;98668.31;4843979;28;102598;-73
2020/12/14 07:37:59;;;;;;;;;15.00;9.50;;;;;11.73;54.25;98680.00;4848990;28;104547;-74
2020/12/14 07:40:26;;;;;;;;;13.25;10.25;;;;;11.72;54.41;98672.91;4844614;28;102503;-74
2020/12/14 07:42:53;;;;;;;;;8.75;7.75;;;;;11.72;53.97;98683.72;4839218;28;102655;-74
2020/12/14 07:45:20;;;;;;;;;16.50;12.50;;;;;11.74;54.32;98683.53;4847048;28;102290;-74
2020/12/14 07:47:49;;;;;;;;;13.00;9.50;;;;;11.72;54.24;98683.72;4841371;28;104046;-74
2020/12/14 07:50:20;;;;;;;;;13.25;11.00;;;;;11.72;54.60;98685.56;4843069;28;103432;-74
2020/12/14 07:52:49;;;;;;;;;10.00;8.50;;;;;11.71;53.95;98684.72;4840214;28;102491;-74
2020/12/14 07:55:16;;;;;;;;;10.75;8.00;;;;;11.71;54.39;98679.31;4851609;28;102693;-74
2020/12/14 07:57:44;;;;;;;;;13.50;12.25;;;;;11.71;54.28;98675.81;4843363;28;109069;-74
2020/12/14 08:00:24;;;;;;;;;13.75;8.75;;;;;11.71;54.18;98679.31;4839575;28;102573;-74
2020/12/14 08:02:54;;;;;;;;;16.00;13.75;;;;;11.71;54.18;98671.19;4841080;28;102558;-74
2020/12/14 08:05:21;;;;;;;;;14.00;9.75;;;;;11.71;54.45;98671.19;4845076;28;102653;-74
2020/12/14 08:08:04;;;;;;;;;11.00;10.50;;;;;11.72;54.49;98672.03;4845336;28;104079;-74
2020/12/14 08:10:32;;;;;;;;;12.75;11.00;;;;;11.69;54.32;98676.00;4839370;28;102243;-74
2020/12/14 08:12:59;;;;;;;;;10.25;8.50;;;;;11.70;53.91;98669.53;4841149;28;102163;-74
2020/12/14 08:15:26;;;;;;;;;12.25;11.00;;;;;11.71;53.89;98670.38;4835832;28;102203;-74
2020/12/14 08:17:53;;;;;;;;;13.00;12.00;;;;;11.71;54.21;98668.47;4837612;28;104260;-74
2020/12/14 08:20:30;;;;;;;;;12.00;11.50;;;;;11.71;54.55;98675.81;4841549;28;102732;-74
2020/12/14 08:22:59;;;;;;;;;13.75;12.00;;;;;11.71;54.39;98689.34;4843793;28;103543;-74
2020/12/14 08:25:27;;;;;;;;;12.50;11.25;;;;;11.69;54.50;98684.13;4844679;28;102309;-74
2020/12/14 08:27:57;;;;;;;;;12.00;10.25;;;;;11.71;54.09;98697.47;4840778;28;104082;-74
2020/12/14 08:30:27;;;;;;;;;14.75;10.50;;;;;11.72;54.15;98693.69;4843857;28;102209;-74
2020/12/14 08:33:12;;;;;;;;;11.25;10.25;;;;;11.69;54.17;98697.66;4843242;28;102480;-74
2020/12/14 08:35:39;;;;;;;;;13.00;9.75;;;;;11.70;54.05;98698.50;4846294;28;102147;-74
2020/12/14 08:38:08;;;;;;;;;11.00;10.75;;;;;11.69;54.08;98691.41;4839488;28;104157;-73
2020/12/14 08:40:35;;;;;;;;;13.00;11.50;;;;;11.69;54.16;98686.84;4845937;28;102021;-73
2020/12/14 08:43:11;;;;;;;;;12.75;9.50;;;;;11.68;54.18;98687.88;4843026;28;102495;-74
2020/12/14 08:45:54;;;;;;;;;8.00;8.00;;;;;11.69;54.21;98694.13;4843273;28;104061;-74
2020/12/14 08:48:21;;;;;;;;;12.50;11.00;;;;;11.69;54.61;98699.53;4839795;28;109240;-74
2020/12/14 08:50:48;;;;;;;;;10.75;9.50;;;;;11.68;54.19;98687.88;4848012;28;103430;-74
2020/12/14 08:53:22;;;;;;;;;10.00;8.25;;;;;11.69;53.94;98694.13;4851840;28;102477;-74
2020/12/14 08:55:49;;;;;;;;;11.25;10.25;;;;;11.69;54.11;98694.97;4845025;28;102692;-74
2020/12/14 08:58:16;;;;;;;;;11.50;10.50;;;;;11.69;54.47;98694.13;4848926;28;104041;-74
2020/12/14 09:00:42;;;;;;;;;12.00;7.00;;;;;11.69;54.24;98683.28;4841265;28;102512;-74
2020/12/14 09:03:09;;;;;;;;;11.25;8.50;;;;;11.69;53.53;98684.13;4848959;28;102451;-74
2020/12/14 09:05:36;;;;;;;;;9.75;6.00;;;;;11.70;54.20;98698.50;4848390;28;102412;-74
2020/12/14 09:08:13;;;;;;;;;5.75;5.50;;;;;11.70;53.56;98690.38;4843790;28;105685;-74
2020/12/14 09:10:39;;;;;;;;;10.75;8.25;;;;;11.71;53.58;98692.06;4841126;28;102222;-74
2020/12/14 09:13:06;;;;;;;;;8.50;7.00;;;;;11.72;53.97;98693.69;4845578;28;102429;-74
2020/12/14 09:15:35;;;;;;;;;7.00;7.00;;;;;11.71;54.06;98692.06;4846308;28;102294;-74
2020/12/14 09:18:05;;;;;;;;;7.50;6.50;;;;;11.70;53.56;98684.97;4846407;28;103998;-74
2020/12/14 09:20:34;;;;;;;;;7.75;7.00;;;;;11.71;53.67;98681.22;4846201;28;102454;-74
2020/12/14 09:23:01;;;;;;;;;9.00;7.00;;;;;11.69;53.58;98672.44;4847528;28;102464;-74
2020/12/14 09:25:28;;;;;;;;;10.50;9.50;;;;;11.71;53.81;98678.50;4846358;28;103267;-74
2020/12/14 09:27:54;;;;;;;;;13.00;8.50;;;;;11.71;53.79;98673.91;4848990;28;104211;-74
2020/12/14 09:30:21;;;;;;;;;11.50;10.00;;;;;11.72;53.69;98682.88;4845928;28;103920;-74
2020/12/14 09:32:48;;;;;;;;;10.00;9.25;;;;;11.72;53.64;98677.44;4842385;28;102310;-74
2020/12/14 09:35:15;;;;;;;;;8.00;7.00;;;;;11.72;53.50;98682.88;4850953;28;102252;-74
2020/12/14 09:37:41;;;;;;;;;7.00;6.50;;;;;11.72;53.38;98677.44;4845188;28;104056;-74
2020/12/14 09:40:08;;;;;;;;;11.00;8.25;;;;;11.71;53.35;98673.09;4841407;28;103698;-74
2020/12/14 09:42:34;;;;;;;;;5.50;5.50;;;;;11.71;53.68;98673.09;4850048;28;102211;-74
2020/12/14 09:45:01;;;;;;;;;8.25;7.25;;;;;11.72;53.83;98666.63;4843456;28;102294;-74
2020/12/14 09:47:28;;;;;;;;;9.50;7.00;;;;;11.72;53.81;98666.63;4847361;28;105099;-73
2020/12/14 09:49:55;;;;;;;;;11.25;10.25;;;;;11.73;53.90;98669.16;4844201;28;102484;-74
2020/12/14 09:52:22;;;;;;;;;7.75;7.00;;;;;11.73;53.79;98669.16;4845074;28;102488;-74
2020/12/14 09:54:48;;;;;;;;;7.50;7.00;;;;;11.72;53.93;98661.19;4849052;28;102649;-74
2020/12/14 09:57:15;;;;;;;;;11.50;8.00;;;;;11.72;53.78;98661.19;4842124;28;108764;-74
2020/12/14 09:59:41;;;;;;;;;10.50;8.00;;;;;11.71;53.91;98663.06;4841065;28;102725;-74
2020/12/14 10:02:08;;;;;;;;;8.50;8.25;;;;;11.73;53.54;98674.56;4843212;28;102611;-74
2020/12/14 10:04:35;;;;;;;;;10.75;8.50;;;;;11.73;53.65;98668.31;4843809;28;102396;-74
2020/12/14 10:07:02;;;;;;;;;12.00;9.75;;;;;11.74;53.54;98680.81;4850554;28;104791;-74
2020/12/14 10:09:29;;;;;;;;;10.75;8.75;;;;;11.74;53.91;98670.00;4846470;28;104005;-74
2020/12/14 10:11:56;;;;;;;;;8.75;7.50;;;;;11.74;53.94;98670.00;4844314;28;102150;-74
2020/12/14 10:14:23;;;;;;;;;12.25;7.75;;;;;11.75;53.33;98674.38;4843429;28;102256;-76
2020/12/14 10:16:50;;;;;;;;;9.75;8.75;;;;;11.76;53.40;98665.19;4845660;28;104328;-76
2020/12/14 10:19:18;;;;;;;;;6.25;5.50;;;;;11.75;53.75;98660.84;4848025;28;102212;-76
2020/12/14 10:21:45;;;;;;;;;9.25;6.50;;;;;11.78;53.27;98660.41;4845399;28;102604;-76
2020/12/14 10:24:11;;;;;;;;;7.75;7.75;;;;;11.78;53.04;98655.00;4845564;28;102193;-76
2020/12/14 10:26:38;;;;;;;;;10.75;6.00;;;;;11.80;53.05;98650.19;4846425;28;104296;-75
2020/12/14 10:29:05;;;;;;;;;7.25;6.50;;;;;11.81;53.47;98641.03;4847485;28;102235;-76
2020/12/14 10:31:32;;;;;;;;;8.75;7.50;;;;;11.81;53.48;98633.72;4841630;28;102497;-76
2020/12/14 10:34:00;;;;;;;;;11.00;6.50;;;;;11.85;53.26;98634.13;4854613;28;102499;-76
2020/12/14 10:36:27;;;;;;;;;7.00;6.00;;;;;11.85;52.95;98631.44;4843751;28;104064;-76
2020/12/14 10:38:54;;;;;;;;;7.00;7.00;;;;;11.86;53.28;98638.53;4847201;28;104267;-75
2020/12/14 10:41:20;;;;;;;;;6.25;6.00;;;;;11.87;53.47;98637.50;4841679;28;103745;-76
2020/12/14 10:43:47;;;;;;;;;7.75;6.00;;;;;11.89;53.09;98640.81;4849100;28;102226;-76
2020/12/14 10:46:16;;;;;;;;;6.50;5.75;;;;;11.89;53.27;98640.81;4847820;28;108914;-76
2020/12/14 10:48:42;;;;;;;;;6.00;6.00;;;;;11.89;53.10;98641.66;4844991;28;102359;-76
2020/12/14 10:51:10;;;;;;;;;8.50;6.50;;;;;11.90;53.02;98639.78;4846545;28;102136;-75
2020/12/14 10:53:37;;;;;;;;;5.00;5.00;;;;;11.90;53.53;98640.59;4848417;28;103989;-76
2020/12/14 10:56:04;;;;;;;;;7.00;7.00;;;;;11.91;53.29;98645.00;4842869;28;103771;-76
2020/12/14 10:58:30;;;;;;;;;8.75;7.25;;;;;11.93;53.04;98647.50;4843449;28;102344;-76
2020/12/14 11:00:57;;;;;;;;;7.50;6.00;;;;;11.91;53.21;98644.16;4840764;28;102651;-76
2020/12/14 11:03:32;;;;;;;;;5.50;4.00;;;;;11.90;53.18;98640.59;4852885;28;102373;-76
2020/12/14 11:05:58;;;;;;;;;6.00;6.00;;;;;11.92;53.19;98646.66;4839535;28;104100;-76
2020/12/14 11:08:25;;;;;;;;;7.00;7.00;;;;;11.92;52.94;98648.53;4849610;28;102104;-76
2020/12/14 11:10:53;;;;;;;;;7.25;7.25;;;;;11.91;53.22;98642.28;4844968;28;102171;-76
2020/12/14 11:13:20;;;;;;;;;6.75;6.00;;;;;11.92;52.84;98643.13;4846473;28;102268;-76
2020/12/14 11:15:46;;;;;;;;;7.00;6.50;;;;;11.91;52.95;98639.56;4842603;28;108780;-76
2020/12/14 11:18:14;;;;;;;;;6.75;5.25;;;;;11.93;53.09;98642.09;4842983;28;104213;-76